sensor_id;sensor_type;location;lat;lon;timestamp;pressure;altitude;pressure_sealevel;temperature;humidity
2339;BME280;1180;51.438;6.978;2023-05-24T00:00:13;101060.81;;;12.03;70.52
2339;BME280;1180;51.438;6.978;2023-05-24T00:02:41;101060.75;;;12.05;69.89
2339;BME280;1180;51.438;6.978;2023-05-24T00:05:08;101062.41;;;12.06;70.04
2339;BME280;1180;51.438;6.978;2023-05-24T00:07:34;101061.91;;;12.15;70.05
2339;BME280;1180;51.438;6.978;2023-05-24T00:10:00;101063.47;;;12.02;70.26
2339;BME280;1180;51.438;6.978;2023-05-24T00:12:25;101065.16;;;12.03;70.28
2339;BME280;1180;51.438;6.978;2023-05-24T00:14:51;101055.03;;;12.16;70.13
2339;BME280;1180;51.438;6.978;2023-05-24T00:17:16;101063.41;;;12.19;69.57
2339;BME280;1180;51.438;6.978;2023-05-24T00:19:41;101061.56;;;12.05;70.45
2339;BME280;1180;51.438;6.978;2023-05-24T00:22:07;101055.34;;;12.09;70.34
2339;BME280;1180;51.438;6.978;2023-05-24T00:24:32;101056.19;;;12.10;70.29
2339;BME280;1180;51.438;6.978;2023-05-24T00:26:58;101056.69;;;12.17;70.12
2339;BME280;1180;51.438;6.978;2023-05-24T00:29:23;101047.56;;;12.27;69.74
2339;BME280;1180;51.438;6.978;2023-05-24T00:31:49;101038.41;;;12.21;70.26
2339;BME280;1180;51.438;6.978;2023-05-24T00:34:14;101041.28;;;12.33;69.98
2339;BME280;1180;51.438;6.978;2023-05-24T00:36:40;101037.28;;;12.27;69.99
2339;BME280;1180;51.438;6.978;2023-05-24T00:39:05;101041.75;;;12.23;70.31
2339;BME280;1180;51.438;6.978;2023-05-24T00:41:30;101035.44;;;12.29;70.28
2339;BME280;1180;51.438;6.978;2023-05-24T00:43:56;101035.84;;;12.37;70.06
2339;BME280;1180;51.438;6.978;2023-05-24T00:46:27;101046.25;;;12.20;70.46
2339;BME280;1180;51.438;6.978;2023-05-24T00:48:52;101043.84;;;12.17;70.83
2339;BME280;1180;51.438;6.978;2023-05-24T00:51:18;101033.09;;;12.24;70.63
2339;BME280;1180;51.438;6.978;2023-05-24T00:53:45;101038.13;;;12.27;70.45
2339;BME280;1180;51.438;6.978;2023-05-24T00:56:15;101028.06;;;12.23;70.34
2339;BME280;1180;51.438;6.978;2023-05-24T00:58:41;101034.53;;;12.14;70.71
2339;BME280;1180;51.438;6.978;2023-05-24T01:01:07;101028.88;;;12.07;71.36
2339;BME280;1180;51.438;6.978;2023-05-24T01:03:33;101033.97;;;12.25;70.81
2339;BME280;1180;51.438;6.978;2023-05-24T01:06:01;101032.88;;;12.29;70.82
2339;BME280;1180;51.438;6.978;2023-05-24T01:16:51;101030.28;;;12.13;71.88
2339;BME280;1180;51.438;6.978;2023-05-24T01:25:21;101020.56;;;12.02;72.40
2339;BME280;1180;51.438;6.978;2023-05-24T01:27:52;101024.13;;;11.99;72.80
2339;BME280;1180;51.438;6.978;2023-05-24T01:30:19;101020.28;;;11.91;72.86
2339;BME280;1180;51.438;6.978;2023-05-24T01:32:44;101018.50;;;12.09;73.16
2339;BME280;1180;51.438;6.978;2023-05-24T01:35:10;101018.91;;;12.01;73.00
2339;BME280;1180;51.438;6.978;2023-05-24T01:37:35;101015.25;;;12.05;73.64
2339;BME280;1180;51.438;6.978;2023-05-24T01:40:01;101022.31;;;12.02;73.57
2339;BME280;1180;51.438;6.978;2023-05-24T01:42:51;101022.47;;;11.98;73.98
2339;BME280;1180;51.438;6.978;2023-05-24T01:45:26;101020.66;;;12.01;73.94
2339;BME280;1180;51.438;6.978;2023-05-24T01:50:57;101007.28;;;11.76;74.83
2339;BME280;1180;51.438;6.978;2023-05-24T01:53:24;101001.91;;;11.81;74.90
2339;BME280;1180;51.438;6.978;2023-05-24T01:55:54;101001.75;;;11.84;75.24
2339;BME280;1180;51.438;6.978;2023-05-24T01:58:22;100997.69;;;11.80;75.23
2339;BME280;1180;51.438;6.978;2023-05-24T02:00:48;100996.34;;;11.73;75.54
2339;BME280;1180;51.438;6.978;2023-05-24T02:03:15;100995.03;;;11.65;76.01
2339;BME280;1180;51.438;6.978;2023-05-24T02:05:41;101000.00;;;11.68;75.72
2339;BME280;1180;51.438;6.978;2023-05-24T02:08:08;100999.31;;;11.65;75.53
2339;BME280;1180;51.438;6.978;2023-05-24T02:10:34;100988.38;;;11.61;75.35
2339;BME280;1180;51.438;6.978;2023-05-24T02:13:02;100995.25;;;11.61;75.69
2339;BME280;1180;51.438;6.978;2023-05-24T02:15:27;100991.19;;;11.56;75.86
2339;BME280;1180;51.438;6.978;2023-05-24T02:17:54;100992.56;;;11.46;76.24
2339;BME280;1180;51.438;6.978;2023-05-24T02:20:19;100990.28;;;11.40;76.88
2339;BME280;1180;51.438;6.978;2023-05-24T02:22:47;100994.47;;;11.43;77.24
2339;BME280;1180;51.438;6.978;2023-05-24T02:25:13;101003.81;;;11.44;77.14
2339;BME280;1180;51.438;6.978;2023-05-24T02:27:38;100996.13;;;11.44;77.06
2339;BME280;1180;51.438;6.978;2023-05-24T02:30:05;101001.34;;;11.24;77.55
2339;BME280;1180;51.438;6.978;2023-05-24T02:32:31;101002.84;;;11.29;77.54
2339;BME280;1180;51.438;6.978;2023-05-24T02:34:57;101002.84;;;11.29;78.03
2339;BME280;1180;51.438;6.978;2023-05-24T02:40:45;101007.47;;;11.22;78.24
2339;BME280;1180;51.438;6.978;2023-05-24T02:43:10;101013.34;;;11.24;78.31
2339;BME280;1180;51.438;6.978;2023-05-24T02:45:35;101018.06;;;11.16;78.68
2339;BME280;1180;51.438;6.978;2023-05-24T02:48:01;101016.59;;;11.10;79.09
2339;BME280;1180;51.438;6.978;2023-05-24T02:50:27;101010.94;;;11.21;78.61
2339;BME280;1180;51.438;6.978;2023-05-24T02:52:52;101014.72;;;11.31;78.56
2339;BME280;1180;51.438;6.978;2023-05-24T02:55:17;101000.50;;;11.41;77.54
2339;BME280;1180;51.438;6.978;2023-05-24T02:57:43;101002.22;;;11.41;77.56
2339;BME280;1180;51.438;6.978;2023-05-24T03:00:08;101010.25;;;11.00;79.64
2339;BME280;1180;51.438;6.978;2023-05-24T03:02:35;100999.53;;;11.09;79.30
2339;BME280;1180;51.438;6.978;2023-05-24T03:05:03;101007.38;;;11.06;79.50
2339;BME280;1180;51.438;6.978;2023-05-24T03:07:31;100999.94;;;11.01;80.01
2339;BME280;1180;51.438;6.978;2023-05-24T03:09:56;101002.88;;;10.93;80.34
2339;BME280;1180;51.438;6.978;2023-05-24T03:12:21;100999.09;;;11.01;80.43
2339;BME280;1180;51.438;6.978;2023-05-24T03:14:47;100998.78;;;11.07;80.28
2339;BME280;1180;51.438;6.978;2023-05-24T03:17:12;100996.69;;;11.15;79.47
2339;BME280;1180;51.438;6.978;2023-05-24T03:19:37;101001.72;;;11.17;78.77
2339;BME280;1180;51.438;6.978;2023-05-24T03:22:03;100999.03;;;11.02;79.75
2339;BME280;1180;51.438;6.978;2023-05-24T03:24:28;101000.50;;;10.89;80.31
2339;BME280;1180;51.438;6.978;2023-05-24T03:26:53;101001.72;;;10.64;81.72
2339;BME280;1180;51.438;6.978;2023-05-24T03:29:19;100989.34;;;10.72;82.35
2339;BME280;1180;51.438;6.978;2023-05-24T03:31:44;100993.34;;;10.78;81.77
2339;BME280;1180;51.438;6.978;2023-05-24T03:34:09;101000.50;;;10.89;81.49
2339;BME280;1180;51.438;6.978;2023-05-24T03:36:35;100994.78;;;10.83;82.05
2339;BME280;1180;51.438;6.978;2023-05-24T03:39:00;100992.81;;;10.89;82.07
2339;BME280;1180;51.438;6.978;2023-05-24T03:41:28;100996.53;;;10.83;82.83
2339;BME280;1180;51.438;6.978;2023-05-24T03:43:53;101003.41;;;11.00;81.81
2339;BME280;1180;51.438;6.978;2023-05-24T03:46:19;100997.38;;;11.01;81.20
2339;BME280;1180;51.438;6.978;2023-05-24T03:48:44;101005.28;;;10.96;81.57
2339;BME280;1180;51.438;6.978;2023-05-24T03:51:10;100999.38;;;10.77;82.73
2339;BME280;1180;51.438;6.978;2023-05-24T03:53:36;101001.41;;;10.70;83.34
2339;BME280;1180;51.438;6.978;2023-05-24T03:56:02;101006.84;;;10.64;83.87
2339;BME280;1180;51.438;6.978;2023-05-24T03:58:27;101008.31;;;10.50;84.58
2339;BME280;1180;51.438;6.978;2023-05-24T04:00:52;101007.22;;;10.74;84.54
2339;BME280;1180;51.438;6.978;2023-05-24T04:03:18;101008.22;;;10.71;83.89
2339;BME280;1180;51.438;6.978;2023-05-24T04:05:44;101008.31;;;10.87;83.88
2339;BME280;1180;51.438;6.978;2023-05-24T04:08:10;101011.69;;;10.88;84.05
2339;BME280;1180;51.438;6.978;2023-05-24T04:10:36;101016.97;;;10.67;85.24
2339;BME280;1180;51.438;6.978;2023-05-24T04:13:02;101024.91;;;10.80;85.08
2339;BME280;1180;51.438;6.978;2023-05-24T04:15:27;101018.13;;;10.79;85.52
2339;BME280;1180;51.438;6.978;2023-05-24T04:17:52;101015.91;;;10.89;85.21
2339;BME280;1180;51.438;6.978;2023-05-24T04:20:19;101015.94;;;11.06;84.85
2339;BME280;1180;51.438;6.978;2023-05-24T04:22:47;101012.63;;;11.04;84.66
2339;BME280;1180;51.438;6.978;2023-05-24T04:25:13;101012.31;;;11.10;85.11
2339;BME280;1180;51.438;6.978;2023-05-24T04:27:38;101022.13;;;11.02;84.85
2339;BME280;1180;51.438;6.978;2023-05-24T04:30:05;101028.69;;;11.08;85.66
2339;BME280;1180;51.438;6.978;2023-05-24T04:32:31;101019.72;;;11.17;85.16
2339;BME280;1180;51.438;6.978;2023-05-24T04:34:57;101018.44;;;11.25;85.07
2339;BME280;1180;51.438;6.978;2023-05-24T04:37:22;101026.50;;;11.18;85.16
2339;BME280;1180;51.438;6.978;2023-05-24T04:39:48;101025.53;;;11.20;86.20
2339;BME280;1180;51.438;6.978;2023-05-24T04:42:14;101027.44;;;11.34;85.41
2339;BME280;1180;51.438;6.978;2023-05-24T04:44:40;101029.09;;;11.35;84.72
2339;BME280;1180;51.438;6.978;2023-05-24T04:47:06;101028.50;;;11.30;85.09
2339;BME280;1180;51.438;6.978;2023-05-24T04:49:31;101037.16;;;11.27;86.91
2339;BME280;1180;51.438;6.978;2023-05-24T04:51:57;101030.88;;;11.51;86.63
2339;BME280;1180;51.438;6.978;2023-05-24T04:54:22;101032.00;;;11.63;85.92
2339;BME280;1180;51.438;6.978;2023-05-24T04:56:48;101034.25;;;11.69;85.48
2339;BME280;1180;51.438;6.978;2023-05-24T04:59:14;101045.97;;;11.75;85.25
2339;BME280;1180;51.438;6.978;2023-05-24T05:01:39;101044.91;;;11.79;85.35
2339;BME280;1180;51.438;6.978;2023-05-24T05:04:05;101050.63;;;11.84;85.28
2339;BME280;1180;51.438;6.978;2023-05-24T05:06:31;101050.31;;;11.90;85.70
2339;BME280;1180;51.438;6.978;2023-05-24T05:08:59;101052.47;;;11.98;85.41
2339;BME280;1180;51.438;6.978;2023-05-24T05:11:24;101057.25;;;12.06;84.84
2339;BME280;1180;51.438;6.978;2023-05-24T05:13:50;101049.31;;;12.10;84.14
2339;BME280;1180;51.438;6.978;2023-05-24T05:16:15;101052.38;;;12.17;84.59
2339;BME280;1180;51.438;6.978;2023-05-24T05:18:40;101051.28;;;12.21;84.12
2339;BME280;1180;51.438;6.978;2023-05-24T05:21:06;101052.53;;;12.30;84.39
2339;BME280;1180;51.438;6.978;2023-05-24T05:23:32;101051.13;;;12.40;83.66
2339;BME280;1180;51.438;6.978;2023-05-24T05:25:57;101058.44;;;12.48;83.04
2339;BME280;1180;51.438;6.978;2023-05-24T05:28:22;101050.31;;;12.56;83.93
2339;BME280;1180;51.438;6.978;2023-05-24T05:30:48;101049.41;;;12.57;85.88
2339;BME280;1180;51.438;6.978;2023-05-24T05:33:13;101050.63;;;12.66;83.81
2339;BME280;1180;51.438;6.978;2023-05-24T05:35:38;101050.53;;;12.67;84.21
2339;BME280;1180;51.438;6.978;2023-05-24T05:38:04;101048.03;;;12.82;83.81
2339;BME280;1180;51.438;6.978;2023-05-24T05:40:29;101052.75;;;12.90;82.28
2339;BME280;1180;51.438;6.978;2023-05-24T05:42:55;101056.72;;;12.95;82.15
2339;BME280;1180;51.438;6.978;2023-05-24T05:45:20;101053.81;;;13.02;81.29
2339;BME280;1180;51.438;6.978;2023-05-24T05:47:45;101042.06;;;13.12;81.64
2339;BME280;1180;51.438;6.978;2023-05-24T05:50:11;101048.16;;;13.11;80.15
2339;BME280;1180;51.438;6.978;2023-05-24T05:52:36;101037.91;;;13.09;80.87
2339;BME280;1180;51.438;6.978;2023-05-24T05:55:01;101040.88;;;13.18;80.38
2339;BME280;1180;51.438;6.978;2023-05-24T05:57:27;101040.31;;;13.12;80.33
2339;BME280;1180;51.438;6.978;2023-05-24T05:59:52;101040.38;;;13.27;81.20
2339;BME280;1180;51.438;6.978;2023-05-24T06:02:18;101048.00;;;13.28;79.47
2339;BME280;1180;51.438;6.978;2023-05-24T06:04:44;101054.72;;;13.31;79.52
2339;BME280;1180;51.438;6.978;2023-05-24T06:07:10;101056.47;;;13.31;79.03
2339;BME280;1180;51.438;6.978;2023-05-24T06:09:35;101068.63;;;12.98;78.98
2339;BME280;1180;51.438;6.978;2023-05-24T06:12:00;101065.91;;;12.85;81.22
2339;BME280;1180;51.438;6.978;2023-05-24T06:14:27;101070.06;;;12.71;81.66
2339;BME280;1180;51.438;6.978;2023-05-24T06:16:52;101063.72;;;12.93;81.18
2339;BME280;1180;51.438;6.978;2023-05-24T06:19:19;101065.81;;;12.54;81.32
2339;BME280;1180;51.438;6.978;2023-05-24T06:21:46;101059.19;;;12.50;81.31
2339;BME280;1180;51.438;6.978;2023-05-24T06:24:16;101072.31;;;12.30;82.92
2339;BME280;1180;51.438;6.978;2023-05-24T06:26:50;101061.00;;;12.64;82.64
2339;BME280;1180;51.438;6.978;2023-05-24T06:29:16;101067.75;;;12.67;80.54
2339;BME280;1180;51.438;6.978;2023-05-24T06:31:44;101056.03;;;12.61;82.03
2339;BME280;1180;51.438;6.978;2023-05-24T06:34:14;101063.00;;;12.75;82.17
2339;BME280;1180;51.438;6.978;2023-05-24T06:36:45;101059.44;;;12.62;81.87
2339;BME280;1180;51.438;6.978;2023-05-24T06:39:12;101060.69;;;12.38;83.02
2339;BME280;1180;51.438;6.978;2023-05-24T06:41:38;101064.16;;;12.53;83.35
2339;BME280;1180;51.438;6.978;2023-05-24T06:44:03;101069.81;;;12.76;81.50
2339;BME280;1180;51.438;6.978;2023-05-24T06:46:29;101074.91;;;12.46;81.90
2339;BME280;1180;51.438;6.978;2023-05-24T06:48:55;101070.06;;;12.71;82.27
2339;BME280;1180;51.438;6.978;2023-05-24T06:51:20;101075.81;;;12.77;80.68
2339;BME280;1180;51.438;6.978;2023-05-24T06:53:46;101070.22;;;12.68;80.18
2339;BME280;1180;51.438;6.978;2023-05-24T06:56:11;101068.31;;;12.88;79.44
2339;BME280;1180;51.438;6.978;2023-05-24T06:58:37;101073.22;;;12.77;79.19
2339;BME280;1180;51.438;6.978;2023-05-24T07:01:02;101074.75;;;12.95;79.23
2339;BME280;1180;51.438;6.978;2023-05-24T07:03:29;101074.38;;;13.18;78.12
2339;BME280;1180;51.438;6.978;2023-05-24T07:05:56;101064.34;;;13.43;76.34
2339;BME280;1180;51.438;6.978;2023-05-24T07:08:23;101060.63;;;13.33;75.36
2339;BME280;1180;51.438;6.978;2023-05-24T07:10:48;101068.19;;;13.36;76.57
2339;BME280;1180;51.438;6.978;2023-05-24T07:13:14;101071.91;;;13.47;76.34
2339;BME280;1180;51.438;6.978;2023-05-24T07:15:42;101071.19;;;13.59;74.86
2339;BME280;1180;51.438;6.978;2023-05-24T07:18:08;101070.84;;;13.94;74.45
2339;BME280;1180;51.438;6.978;2023-05-24T07:20:33;101072.09;;;13.58;73.34
2339;BME280;1180;51.438;6.978;2023-05-24T07:22:59;101081.75;;;13.24;75.04
2339;BME280;1180;51.438;6.978;2023-05-24T07:25:25;101078.75;;;13.01;74.26
2339;BME280;1180;51.438;6.978;2023-05-24T07:27:51;101081.94;;;12.90;75.12
2339;BME280;1180;51.438;6.978;2023-05-24T07:30:16;101084.09;;;12.98;74.84
2339;BME280;1180;51.438;6.978;2023-05-24T07:32:42;101078.53;;;13.51;73.99
2339;BME280;1180;51.438;6.978;2023-05-24T07:35:07;101065.69;;;13.65;72.65
2339;BME280;1180;51.438;6.978;2023-05-24T07:37:33;101061.78;;;13.43;72.32
2339;BME280;1180;51.438;6.978;2023-05-24T07:39:58;101078.19;;;13.26;72.51
2339;BME280;1180;51.438;6.978;2023-05-24T07:42:24;101061.63;;;13.00;74.25
2339;BME280;1180;51.438;6.978;2023-05-24T07:44:49;101071.69;;;12.89;76.39
2339;BME280;1180;51.438;6.978;2023-05-24T07:47:15;101066.50;;;12.74;76.17
2339;BME280;1180;51.438;6.978;2023-05-24T07:49:40;101061.09;;;12.79;76.59
2339;BME280;1180;51.438;6.978;2023-05-24T07:52:06;101068.34;;;12.56;77.04
2339;BME280;1180;51.438;6.978;2023-05-24T07:54:32;101070.91;;;12.72;78.34
2339;BME280;1180;51.438;6.978;2023-05-24T07:56:57;101074.25;;;13.05;76.01
2339;BME280;1180;51.438;6.978;2023-05-24T07:59:22;101065.03;;;13.31;74.14
2339;BME280;1180;51.438;6.978;2023-05-24T08:01:48;101062.66;;;13.28;73.90
2339;BME280;1180;51.438;6.978;2023-05-24T08:04:14;101077.44;;;13.24;74.40
2339;BME280;1180;51.438;6.978;2023-05-24T08:06:40;101077.44;;;13.24;74.20
2339;BME280;1180;51.438;6.978;2023-05-24T08:09:05;101081.00;;;13.22;73.65
2339;BME280;1180;51.438;6.978;2023-05-24T08:11:32;101080.78;;;13.41;72.87
2339;BME280;1180;51.438;6.978;2023-05-24T08:13:57;101079.81;;;13.43;71.76
2339;BME280;1180;51.438;6.978;2023-05-24T08:16:23;101074.59;;;13.45;70.31
2339;BME280;1180;51.438;6.978;2023-05-24T08:18:48;101081.47;;;13.14;70.73
2339;BME280;1180;51.438;6.978;2023-05-24T08:21:14;101087.88;;;13.37;69.98
2339;BME280;1180;51.438;6.978;2023-05-24T08:23:39;101081.88;;;13.67;68.96
2339;BME280;1180;51.438;6.978;2023-05-24T08:26:05;101074.16;;;13.67;69.90
2339;BME280;1180;51.438;6.978;2023-05-24T08:28:30;101078.03;;;13.75;67.60
2339;BME280;1180;51.438;6.978;2023-05-24T08:30:56;101071.00;;;14.06;66.19
2339;BME280;1180;51.438;6.978;2023-05-24T08:33:22;101072.88;;;14.04;65.10
2339;BME280;1180;51.438;6.978;2023-05-24T08:35:49;101076.25;;;13.75;66.04
2339;BME280;1180;51.438;6.978;2023-05-24T08:38:15;101064.09;;;13.92;66.70
2339;BME280;1180;51.438;6.978;2023-05-24T08:40:41;101065.84;;;14.06;65.56
2339;BME280;1180;51.438;6.978;2023-05-24T08:43:07;101064.66;;;14.11;64.91
2339;BME280;1180;51.438;6.978;2023-05-24T08:45:37;101061.16;;;13.98;66.66
2339;BME280;1180;51.438;6.978;2023-05-24T08:48:04;101061.50;;;14.06;66.83
2339;BME280;1180;51.438;6.978;2023-05-24T08:50:31;101057.47;;;14.17;66.00
2339;BME280;1180;51.438;6.978;2023-05-24T08:52:58;101062.97;;;14.25;64.69
2339;BME280;1180;51.438;6.978;2023-05-24T08:55:24;101063.34;;;14.19;65.20
2339;BME280;1180;51.438;6.978;2023-05-24T08:57:49;101058.22;;;14.46;65.93
2339;BME280;1180;51.438;6.978;2023-05-24T09:00:15;101066.50;;;14.51;64.91
2339;BME280;1180;51.438;6.978;2023-05-24T09:02:42;101064.03;;;14.50;65.43
2339;BME280;1180;51.438;6.978;2023-05-24T09:05:11;101059.81;;;14.76;65.41
2339;BME280;1180;51.438;6.978;2023-05-24T09:07:37;101065.91;;;14.75;65.55
2339;BME280;1180;51.438;6.978;2023-05-24T09:10:07;101062.31;;;14.78;65.01
2339;BME280;1180;51.438;6.978;2023-05-24T09:12:34;101058.50;;;14.83;64.78
2339;BME280;1180;51.438;6.978;2023-05-24T09:15:01;101069.38;;;15.01;65.57
2339;BME280;1180;51.438;6.978;2023-05-24T09:17:29;101068.63;;;14.86;64.45
2339;BME280;1180;51.438;6.978;2023-05-24T09:19:56;101057.44;;;15.26;65.25
2339;BME280;1180;51.438;6.978;2023-05-24T09:22:25;101058.50;;;15.76;63.05
2339;BME280;1180;51.438;6.978;2023-05-24T09:24:52;101060.16;;;15.64;62.04
2339;BME280;1180;51.438;6.978;2023-05-24T09:27:18;101057.66;;;16.01;61.71
2339;BME280;1180;51.438;6.978;2023-05-24T09:29:48;101060.97;;;15.90;60.69
2339;BME280;1180;51.438;6.978;2023-05-24T09:32:14;101060.66;;;15.56;60.35
2339;BME280;1180;51.438;6.978;2023-05-24T09:34:41;101053.91;;;15.14;60.52
2339;BME280;1180;51.438;6.978;2023-05-24T09:37:16;101054.31;;;15.08;60.67
2339;BME280;1180;51.438;6.978;2023-05-24T09:39:43;101049.81;;;14.84;61.68
2339;BME280;1180;51.438;6.978;2023-05-24T09:42:16;101056.03;;;14.67;62.54
2339;BME280;1180;51.438;6.978;2023-05-24T09:44:47;101057.31;;;14.75;63.61
2339;BME280;1180;51.438;6.978;2023-05-24T09:47:13;101050.88;;;15.08;62.38
2339;BME280;1180;51.438;6.978;2023-05-24T09:49:40;101043.66;;;15.00;61.05
2339;BME280;1180;51.438;6.978;2023-05-24T09:52:05;101045.13;;;15.17;59.95
2339;BME280;1180;51.438;6.978;2023-05-24T09:54:32;101041.84;;;15.28;60.13
2339;BME280;1180;51.438;6.978;2023-05-24T09:57:02;101047.75;;;15.30;60.44
2339;BME280;1180;51.438;6.978;2023-05-24T09:59:32;101041.50;;;15.20;60.24
2339;BME280;1180;51.438;6.978;2023-05-24T10:02:08;101042.38;;;15.59;59.74
2339;BME280;1180;51.438;6.978;2023-05-24T10:04:39;101044.41;;;15.80;58.92
2339;BME280;1180;51.438;6.978;2023-05-24T10:07:06;101035.00;;;15.92;59.32
2339;BME280;1180;51.438;6.978;2023-05-24T10:09:32;101041.13;;;16.28;60.15
2339;BME280;1180;51.438;6.978;2023-05-24T10:12:05;101040.56;;;16.11;58.21
2339;BME280;1180;51.438;6.978;2023-05-24T10:14:35;101040.31;;;16.27;58.53
2339;BME280;1180;51.438;6.978;2023-05-24T10:17:05;101031.44;;;16.43;57.18
2339;BME280;1180;51.438;6.978;2023-05-24T10:19:32;101038.44;;;16.29;57.05
2339;BME280;1180;51.438;6.978;2023-05-24T10:21:58;101041.03;;;16.29;55.50
2339;BME280;1180;51.438;6.978;2023-05-24T10:24:28;101051.66;;;15.74;56.51
2339;BME280;1180;51.438;6.978;2023-05-24T10:26:57;101040.16;;;15.79;56.90
2339;BME280;1180;51.438;6.978;2023-05-24T10:32:12;101049.69;;;15.78;57.47
2339;BME280;1180;51.438;6.978;2023-05-24T10:34:40;101037.38;;;15.95;57.45
2339;BME280;1180;51.438;6.978;2023-05-24T10:37:07;101044.81;;;16.12;56.93
2339;BME280;1180;51.438;6.978;2023-05-24T10:39:34;101043.88;;;15.87;57.28
2339;BME280;1180;51.438;6.978;2023-05-24T10:42:04;101042.44;;;15.70;56.85
2339;BME280;1180;51.438;6.978;2023-05-24T10:44:30;101036.84;;;15.77;56.22
2339;BME280;1180;51.438;6.978;2023-05-24T10:47:09;101043.69;;;15.65;55.87
2339;BME280;1180;51.438;6.978;2023-05-24T10:49:36;101037.50;;;15.41;56.43
2339;BME280;1180;51.438;6.978;2023-05-24T10:52:06;101043.69;;;15.65;57.02
2339;BME280;1180;51.438;6.978;2023-05-24T10:54:32;101048.25;;;15.48;57.51
2339;BME280;1180;51.438;6.978;2023-05-24T10:57:00;101045.88;;;15.45;58.28
2339;BME280;1180;51.438;6.978;2023-05-24T10:59:37;101054.75;;;15.54;58.61
2339;BME280;1180;51.438;6.978;2023-05-24T11:02:08;101051.25;;;15.29;59.51
2339;BME280;1180;51.438;6.978;2023-05-24T11:04:39;101047.00;;;15.28;60.15
2339;BME280;1180;51.438;6.978;2023-05-24T11:07:06;101056.09;;;14.80;59.90
2339;BME280;1180;51.438;6.978;2023-05-24T11:09:38;101054.78;;;14.87;61.37
2339;BME280;1180;51.438;6.978;2023-05-24T11:12:18;101052.75;;;15.06;61.14
2339;BME280;1180;51.438;6.978;2023-05-24T11:14:49;101050.81;;;15.09;61.82
2339;BME280;1180;51.438;6.978;2023-05-24T11:17:22;101050.00;;;15.09;59.87
2339;BME280;1180;51.438;6.978;2023-05-24T11:19:54;101055.38;;;14.78;60.51
2339;BME280;1180;51.438;6.978;2023-05-24T11:22:23;101053.38;;;14.54;60.46
2339;BME280;1180;51.438;6.978;2023-05-24T11:24:50;101043.50;;;14.76;60.93
2339;BME280;1180;51.438;6.978;2023-05-24T11:27:16;101048.97;;;15.24;60.21
2339;BME280;1180;51.438;6.978;2023-05-24T11:29:43;101056.25;;;15.05;60.07
2339;BME280;1180;51.438;6.978;2023-05-24T11:32:14;101045.13;;;15.17;60.71
2339;BME280;1180;51.438;6.978;2023-05-24T11:34:39;101046.28;;;15.26;59.81
2339;BME280;1180;51.438;6.978;2023-05-24T11:37:04;101043.59;;;15.40;59.83
2339;BME280;1180;51.438;6.978;2023-05-24T11:39:31;101038.84;;;15.60;59.06
2339;BME280;1180;51.438;6.978;2023-05-24T11:41:57;101042.03;;;15.90;59.84
2339;BME280;1180;51.438;6.978;2023-05-24T11:44:23;101041.81;;;16.06;58.94
2339;BME280;1180;51.438;6.978;2023-05-24T11:46:56;101046.78;;;15.96;58.89
2339;BME280;1180;51.438;6.978;2023-05-24T11:49:22;101042.44;;;15.70;58.51
2339;BME280;1180;51.438;6.978;2023-05-24T11:51:47;101032.09;;;15.44;60.39
2339;BME280;1180;51.438;6.978;2023-05-24T11:54:13;101034.47;;;15.35;61.37
2339;BME280;1180;51.438;6.978;2023-05-24T11:56:38;101031.47;;;15.67;61.60
2339;BME280;1180;51.438;6.978;2023-05-24T11:59:23;101040.03;;;16.06;59.51
2339;BME280;1180;51.438;6.978;2023-05-24T12:01:55;101033.63;;;15.73;59.19
2339;BME280;1180;51.438;6.978;2023-05-24T12:04:21;101038.72;;;15.74;59.83
2339;BME280;1180;51.438;6.978;2023-05-24T12:06:47;101033.25;;;15.79;60.20
2339;BME280;1180;51.438;6.978;2023-05-24T12:09:14;101031.09;;;15.60;60.23
2339;BME280;1180;51.438;6.978;2023-05-24T12:11:40;101030.56;;;15.42;61.18
2339;BME280;1180;51.438;6.978;2023-05-24T12:14:13;101035.13;;;15.51;61.57
2339;BME280;1180;51.438;6.978;2023-05-24T12:16:40;101031.03;;;15.73;60.42
2339;BME280;1180;51.438;6.978;2023-05-24T12:19:06;101034.81;;;15.43;61.10
2339;BME280;1180;51.438;6.978;2023-05-24T12:21:32;101038.44;;;15.66;60.79
2339;BME280;1180;51.438;6.978;2023-05-24T12:24:24;101040.81;;;15.43;61.64
2339;BME280;1180;51.438;6.978;2023-05-24T12:26:50;101037.28;;;15.31;61.71
2339;BME280;1180;51.438;6.978;2023-05-24T12:29:18;101037.47;;;15.28;62.09
2339;BME280;1180;51.438;6.978;2023-05-24T12:31:47;101042.03;;;15.64;62.18
2339;BME280;1180;51.438;6.978;2023-05-24T12:34:18;101037.50;;;15.93;60.87
2339;BME280;1180;51.438;6.978;2023-05-24T12:36:44;101036.78;;;15.65;61.78
2339;BME280;1180;51.438;6.978;2023-05-24T12:39:25;101029.09;;;15.51;61.83
2339;BME280;1180;51.438;6.978;2023-05-24T12:42:10;101028.06;;;15.79;62.93
2339;BME280;1180;51.438;6.978;2023-05-24T12:44:39;101022.94;;;16.16;60.19
2339;BME280;1180;51.438;6.978;2023-05-24T12:47:06;101030.00;;;16.01;59.12
2339;BME280;1180;51.438;6.978;2023-05-24T12:49:32;101030.31;;;15.84;61.22
2339;BME280;1180;51.438;6.978;2023-05-24T12:51:59;101028.56;;;16.10;59.69
2339;BME280;1180;51.438;6.978;2023-05-24T12:54:27;101028.59;;;16.22;59.21
2339;BME280;1180;51.438;6.978;2023-05-24T12:56:54;101018.91;;;16.61;57.32
2339;BME280;1180;51.438;6.978;2023-05-24T12:59:20;101018.91;;;16.97;57.38
2339;BME280;1180;51.438;6.978;2023-05-24T13:01:46;101027.34;;;16.52;56.87
2339;BME280;1180;51.438;6.978;2023-05-24T13:04:16;101027.69;;;16.47;57.48
2339;BME280;1180;51.438;6.978;2023-05-24T13:06:43;101028.22;;;16.64;56.50
2339;BME280;1180;51.438;6.978;2023-05-24T13:09:09;101026.09;;;16.57;57.54
2339;BME280;1180;51.438;6.978;2023-05-24T13:11:35;101019.88;;;16.71;57.01
2339;BME280;1180;51.438;6.978;2023-05-24T13:14:04;101028.38;;;16.98;57.80
2339;BME280;1180;51.438;6.978;2023-05-24T13:16:30;101021.81;;;16.32;57.13
2339;BME280;1180;51.438;6.978;2023-05-24T13:18:56;101031.28;;;16.20;59.72
2339;BME280;1180;51.438;6.978;2023-05-24T13:21:22;101031.47;;;16.30;58.61
2339;BME280;1180;51.438;6.978;2023-05-24T13:23:48;101029.28;;;15.99;59.75
2339;BME280;1180;51.438;6.978;2023-05-24T13:26:14;101027.88;;;16.20;60.80
2339;BME280;1180;51.438;6.978;2023-05-24T13:28:42;101029.28;;;16.61;59.84
2339;BME280;1180;51.438;6.978;2023-05-24T13:31:07;101031.56;;;16.77;59.13